N140JP TNCM-SKBO
Flight info
| Callsign | N140JP |
|---|---|
| Flight time | 2h 32m |
| Altitude | 43000 |
| Route | PJM L204 GOUDA DCT SCAPA UL335 AMBAS DCT UGALU/N0480F450 UL305 ATANA ATANA5T |
| Aircraft | C750/M-SBDE3FGHRWXY/S |
Departure
| Time | 2026-05-03 23:00 |
|---|---|
| Airport | Princess Juliana International Airport (TNCM) |
Arrival
| Time | 2026-05-04 01:32 |
|---|---|
| Airport | El Dorado International Airport (SKBO) |
| Time | Latitude | Longitude | Altitude | Speed | Heading |
|---|---|---|---|---|---|
| 2026-05-03 22:37 | 18.04189 | -63.11147 | 19 ft | 0 kts | 171° |
| 2026-05-03 22:54 | 18.04186 | -63.11146 | 18 ft | 2 kts | 171° |
| 2026-05-03 22:54 | 18.04168 | -63.11143 | 18 ft | 3 kts | 173° |
| 2026-05-03 22:55 | 18.04153 | -63.11150 | 20 ft | 2 kts | 227° |
| 2026-05-03 22:55 | 18.04150 | -63.11169 | 18 ft | 4 kts | 262° |
| 2026-05-03 22:55 | 18.04144 | -63.11205 | 18 ft | 6 kts | 259° |
| 2026-05-03 22:55 | 18.04137 | -63.11257 | 17 ft | 8 kts | 262° |
| 2026-05-03 22:56 | 18.04115 | -63.11291 | 18 ft | 6 kts | 191° |
| 2026-05-03 22:56 | 18.04067 | -63.11286 | 17 ft | 8 kts | 174° |
| 2026-05-03 22:56 | 18.04032 | -63.11331 | 17 ft | 10 kts | 256° |
| 2026-05-03 22:56 | 18.04024 | -63.11380 | 19 ft | 11 kts | 261° |
| 2026-05-03 22:57 | 18.04008 | -63.11491 | 18 ft | 12 kts | 261° |
| 2026-05-03 22:57 | 18.03999 | -63.11552 | 18 ft | 13 kts | 261° |
| 2026-05-03 22:57 | 18.03980 | -63.11689 | 19 ft | 15 kts | 262° |
| 2026-05-03 22:57 | 18.03963 | -63.11804 | 18 ft | 14 kts | 262° |
| 2026-05-03 22:58 | 18.03970 | -63.11868 | 21 ft | 14 kts | 287° |
| 2026-05-03 22:58 | 18.03990 | -63.11954 | 18 ft | 8 kts | 246° |
| 2026-05-03 22:58 | 18.03947 | -63.11951 | 19 ft | 8 kts | 122° |
| 2026-05-03 22:58 | 18.03947 | -63.11918 | 19 ft | 0 kts | 83° |
| 2026-05-03 22:59 | 18.03947 | -63.11917 | 19 ft | 3 kts | 83° |
| 2026-05-03 22:59 | 18.03993 | -63.11599 | 18 ft | 100 kts | 82° |
| 2026-05-03 22:59 | 18.04108 | -63.10675 | 381 ft | 129 kts | 90° |
| 2026-05-03 23:00 | 18.03886 | -63.09745 | 1001 ft | 140 kts | 120° |
| 2026-05-03 23:00 | 18.02985 | -63.09215 | 1478 ft | 163 kts | 166° |
| 2026-05-03 23:00 | 18.01847 | -63.09032 | 2229 ft | 168 kts | 166° |
| 2026-05-03 23:00 | 18.00658 | -63.08802 | 2837 ft | 183 kts | 165° |
| 2026-05-03 23:01 | 17.99322 | -63.08535 | 3236 ft | 208 kts | 165° |
| 2026-05-03 23:01 | 17.97812 | -63.08217 | 3664 ft | 235 kts | 165° |
| 2026-05-03 23:01 | 17.96124 | -63.07843 | 4219 ft | 258 kts | 165° |
| 2026-05-03 23:01 | 17.94352 | -63.07453 | 5189 ft | 261 kts | 165° |
| 2026-05-03 23:02 | 17.92556 | -63.07058 | 6083 ft | 266 kts | 165° |
| 2026-05-03 23:02 | 17.90720 | -63.06651 | 6913 ft | 273 kts | 166° |
| 2026-05-03 23:02 | 17.88852 | -63.06227 | 7851 ft | 277 kts | 165° |
| 2026-05-03 23:02 | 17.86971 | -63.05832 | 8773 ft | 284 kts | 173° |
| 2026-05-03 23:03 | 17.85021 | -63.06264 | 9643 ft | 294 kts | 206° |
| 2026-05-03 23:03 | 17.83353 | -63.07502 | 10414 ft | 303 kts | 223° |
| 2026-05-03 23:03 | 17.82223 | -63.09477 | 10507 ft | 335 kts | 252° |
| 2026-05-03 23:03 | 17.82088 | -63.12013 | 10567 ft | 363 kts | 277° |
| 2026-05-03 23:04 | 17.82631 | -63.14602 | 11333 ft | 363 kts | 284° |
| 2026-05-03 23:04 | 17.83282 | -63.17165 | 12093 ft | 365 kts | 284° |
| 2026-05-03 23:04 | 17.83829 | -63.19780 | 12795 ft | 369 kts | 281° |
| 2026-05-03 23:04 | 17.84315 | -63.22436 | 13514 ft | 372 kts | 281° |
| 2026-05-03 23:05 | 17.84852 | -63.25078 | 14158 ft | 375 kts | 283° |
| 2026-05-03 23:05 | 17.85435 | -63.27752 | 14810 ft | 377 kts | 283° |
| 2026-05-03 23:05 | 17.85997 | -63.30443 | 15452 ft | 379 kts | 282° |
| 2026-05-03 23:05 | 17.86540 | -63.33164 | 16163 ft | 380 kts | 282° |
| 2026-05-03 23:06 | 17.87093 | -63.35880 | 16843 ft | 383 kts | 282° |
| 2026-05-03 23:06 | 17.87665 | -63.38622 | 17554 ft | 384 kts | 282° |
| 2026-05-03 23:06 | 17.88232 | -63.41367 | 18305 ft | 385 kts | 282° |
| 2026-05-03 23:06 | 17.88796 | -63.44132 | 18903 ft | 389 kts | 282° |
| 2026-05-03 23:07 | 17.89368 | -63.46937 | 19424 ft | 396 kts | 282° |
| 2026-05-03 23:07 | 17.89950 | -63.49769 | 20091 ft | 398 kts | 283° |
| 2026-05-03 23:07 | 17.90538 | -63.52635 | 20620 ft | 405 kts | 283° |
| 2026-05-03 23:07 | 17.91134 | -63.55550 | 21188 ft | 410 kts | 283° |
| 2026-05-03 23:08 | 17.91726 | -63.58453 | 21848 ft | 413 kts | 283° |
| 2026-05-03 23:08 | 17.92327 | -63.61419 | 22427 ft | 418 kts | 282° |
| 2026-05-03 23:08 | 17.92563 | -63.64497 | 22935 ft | 426 kts | 270° |
| 2026-05-03 23:08 | 17.92207 | -63.67604 | 23538 ft | 433 kts | 259° |
| 2026-05-03 23:09 | 17.91239 | -63.70623 | 24021 ft | 440 kts | 247° |
| 2026-05-03 23:09 | 17.89789 | -63.73468 | 24550 ft | 444 kts | 242° |
| 2026-05-03 23:09 | 17.88261 | -63.76316 | 25066 ft | 447 kts | 242° |
| 2026-05-03 23:09 | 17.86740 | -63.79165 | 25614 ft | 450 kts | 242° |
| 2026-05-03 23:10 | 17.85204 | -63.82054 | 26097 ft | 455 kts | 242° |
| 2026-05-03 23:10 | 17.83655 | -63.84960 | 26648 ft | 457 kts | 242° |
| 2026-05-03 23:10 | 17.82093 | -63.87879 | 27169 ft | 461 kts | 242° |
| 2026-05-03 23:10 | 17.80517 | -63.90827 | 27666 ft | 465 kts | 242° |
| 2026-05-03 23:11 | 17.78931 | -63.93799 | 28207 ft | 467 kts | 241° |
| 2026-05-03 23:11 | 17.77333 | -63.96790 | 28669 ft | 472 kts | 241° |
| 2026-05-03 23:11 | 17.75737 | -63.99772 | 29191 ft | 475 kts | 241° |
| 2026-05-03 23:11 | 17.74113 | -64.02804 | 29649 ft | 479 kts | 241° |
| 2026-05-03 23:12 | 17.72483 | -64.05852 | 30116 ft | 482 kts | 241° |
| 2026-05-03 23:12 | 17.70838 | -64.08923 | 30529 ft | 484 kts | 241° |
| 2026-05-03 23:12 | 17.69179 | -64.12019 | 30920 ft | 487 kts | 241° |
| 2026-05-03 23:12 | 17.67522 | -64.15110 | 31499 ft | 484 kts | 241° |
| 2026-05-03 23:13 | 17.65876 | -64.18179 | 32105 ft | 482 kts | 241° |
| 2026-05-03 23:13 | 17.64237 | -64.21233 | 32685 ft | 480 kts | 242° |
| 2026-05-03 23:13 | 17.62602 | -64.24278 | 33232 ft | 479 kts | 242° |
| 2026-05-03 23:13 | 17.60965 | -64.27327 | 33827 ft | 477 kts | 242° |
| 2026-05-03 23:14 | 17.59341 | -64.30347 | 34375 ft | 475 kts | 242° |
| 2026-05-03 23:14 | 17.57726 | -64.33351 | 34882 ft | 473 kts | 242° |
| 2026-05-03 23:14 | 17.56109 | -64.36358 | 35394 ft | 472 kts | 242° |
| 2026-05-03 23:14 | 17.54519 | -64.39314 | 35913 ft | 470 kts | 242° |
| 2026-05-03 23:15 | 17.52896 | -64.42327 | 36440 ft | 469 kts | 242° |
| 2026-05-03 23:15 | 17.51314 | -64.45265 | 36966 ft | 467 kts | 243° |
| 2026-05-03 23:15 | 17.49719 | -64.48225 | 37503 ft | 466 kts | 243° |
| 2026-05-03 23:15 | 17.48128 | -64.51177 | 38052 ft | 465 kts | 243° |
| 2026-05-03 23:16 | 17.46538 | -64.54125 | 38620 ft | 463 kts | 243° |
| 2026-05-03 23:16 | 17.44953 | -64.57062 | 39115 ft | 461 kts | 244° |
| 2026-05-03 23:16 | 17.43377 | -64.59981 | 39616 ft | 459 kts | 244° |
| 2026-05-03 23:16 | 17.41811 | -64.62881 | 40164 ft | 456 kts | 244° |
| 2026-05-03 23:17 | 17.40253 | -64.65764 | 40706 ft | 453 kts | 244° |
| 2026-05-03 23:17 | 17.38708 | -64.68623 | 41227 ft | 451 kts | 245° |
| 2026-05-03 23:17 | 17.37167 | -64.71474 | 41737 ft | 449 kts | 245° |
| 2026-05-03 23:17 | 17.35629 | -64.74316 | 42236 ft | 447 kts | 245° |
| 2026-05-03 23:18 | 17.34104 | -64.77135 | 42727 ft | 444 kts | 245° |
| 2026-05-03 23:18 | 17.32590 | -64.79926 | 43053 ft | 441 kts | 245° |
| 2026-05-03 23:18 | 17.31070 | -64.82743 | 43040 ft | 449 kts | 245° |
| 2026-05-03 23:19 | 17.27926 | -64.88545 | 43043 ft | 465 kts | 245° |
| 2026-05-03 23:19 | 17.24682 | -64.94522 | 43042 ft | 479 kts | 245° |
| 2026-05-03 23:20 | 17.21377 | -65.00608 | 43049 ft | 487 kts | 245° |
| 2026-05-03 23:20 | 17.18023 | -65.06775 | 43042 ft | 487 kts | 245° |
| 2026-05-03 23:21 | 17.14682 | -65.12919 | 43040 ft | 485 kts | 245° |
| 2026-05-03 23:21 | 17.11343 | -65.19052 | 43030 ft | 485 kts | 245° |
| 2026-05-03 23:22 | 17.06327 | -65.28252 | 43028 ft | 486 kts | 245° |
| 2026-05-03 23:22 | 17.02992 | -65.34364 | 43032 ft | 483 kts | 244° |
| 2026-05-03 23:23 | 16.99658 | -65.40469 | 43035 ft | 484 kts | 244° |
| 2026-05-03 23:23 | 16.96313 | -65.46587 | 43038 ft | 485 kts | 244° |
| 2026-05-03 23:24 | 16.92987 | -65.52665 | 43039 ft | 484 kts | 244° |
| 2026-05-03 23:24 | 16.89643 | -65.58771 | 43035 ft | 484 kts | 244° |
| 2026-05-03 23:25 | 16.86299 | -65.64872 | 43030 ft | 483 kts | 244° |
| 2026-05-03 23:25 | 16.82961 | -65.70956 | 43026 ft | 483 kts | 244° |
| 2026-05-03 23:26 | 16.79607 | -65.77063 | 43025 ft | 484 kts | 244° |
| 2026-05-03 23:26 | 16.76282 | -65.83113 | 43027 ft | 484 kts | 244° |
| 2026-05-03 23:27 | 16.72928 | -65.89209 | 43027 ft | 484 kts | 244° |
| 2026-05-03 23:27 | 16.69581 | -65.95289 | 43023 ft | 483 kts | 244° |
| 2026-05-03 23:28 | 16.66234 | -66.01361 | 43019 ft | 482 kts | 244° |
| 2026-05-03 23:28 | 16.62883 | -66.07438 | 43022 ft | 483 kts | 244° |
| 2026-05-03 23:29 | 16.59531 | -66.13507 | 43021 ft | 483 kts | 244° |
| 2026-05-03 23:29 | 16.56176 | -66.19581 | 43017 ft | 483 kts | 244° |
| 2026-05-03 23:30 | 16.52841 | -66.25611 | 43017 ft | 483 kts | 244° |
| 2026-05-03 23:30 | 16.49494 | -66.31656 | 43017 ft | 481 kts | 244° |
| 2026-05-03 23:31 | 16.46149 | -66.37697 | 43016 ft | 482 kts | 244° |
| 2026-05-03 23:31 | 16.42798 | -66.43740 | 43012 ft | 482 kts | 244° |
| 2026-05-03 23:32 | 16.39445 | -66.49781 | 43011 ft | 482 kts | 244° |
| 2026-05-03 23:32 | 16.36092 | -66.55819 | 43005 ft | 482 kts | 244° |
| 2026-05-03 23:33 | 16.32730 | -66.61867 | 43009 ft | 480 kts | 244° |
| 2026-05-03 23:33 | 16.29384 | -66.67882 | 43007 ft | 481 kts | 244° |
| 2026-05-03 23:34 | 16.26028 | -66.73907 | 43010 ft | 481 kts | 244° |
| 2026-05-03 23:34 | 16.22675 | -66.79924 | 43010 ft | 480 kts | 244° |
| 2026-05-03 23:35 | 16.19322 | -66.85936 | 43011 ft | 480 kts | 244° |
| 2026-05-03 23:35 | 16.15989 | -66.91905 | 43011 ft | 479 kts | 244° |
| 2026-05-03 23:36 | 16.12638 | -66.97904 | 43012 ft | 480 kts | 244° |
| 2026-05-03 23:36 | 16.09281 | -67.03906 | 43005 ft | 479 kts | 244° |
| 2026-05-03 23:37 | 16.05934 | -67.09887 | 43005 ft | 478 kts | 243° |
| 2026-05-03 23:37 | 16.02584 | -67.15869 | 42998 ft | 478 kts | 243° |
| 2026-05-03 23:38 | 15.99233 | -67.21846 | 42999 ft | 478 kts | 243° |
| 2026-05-03 23:38 | 15.95891 | -67.27802 | 43003 ft | 477 kts | 243° |
| 2026-05-03 23:39 | 15.92547 | -67.33758 | 43010 ft | 478 kts | 243° |
| 2026-05-03 23:39 | 15.89181 | -67.39747 | 43003 ft | 478 kts | 243° |
| 2026-05-03 23:40 | 15.85841 | -67.45686 | 43008 ft | 477 kts | 243° |
| 2026-05-03 23:40 | 15.82353 | -67.51570 | 43001 ft | 480 kts | 238° |
| 2026-05-03 23:41 | 15.78452 | -67.57164 | 42993 ft | 482 kts | 238° |
| 2026-05-03 23:41 | 15.74553 | -67.62834 | 43011 ft | 482 kts | 238° |
| 2026-05-03 23:42 | 15.70634 | -67.68484 | 42996 ft | 481 kts | 238° |
| 2026-05-03 23:42 | 15.66735 | -67.74124 | 43000 ft | 481 kts | 238° |
| 2026-05-03 23:43 | 15.62846 | -67.79734 | 43000 ft | 481 kts | 238° |
| 2026-05-03 23:43 | 15.58935 | -67.85376 | 42995 ft | 482 kts | 238° |
| 2026-05-03 23:44 | 15.55659 | -67.90098 | 42991 ft | 482 kts | 238° |
| 2026-05-03 23:44 | 15.51768 | -67.95702 | 42983 ft | 481 kts | 238° |
| 2026-05-03 23:45 | 15.47822 | -68.01383 | 42982 ft | 482 kts | 238° |
| 2026-05-03 23:45 | 15.43920 | -68.06993 | 42995 ft | 482 kts | 238° |
| 2026-05-03 23:46 | 15.39994 | -68.12637 | 42998 ft | 483 kts | 238° |
| 2026-05-03 23:46 | 15.36066 | -68.18277 | 42999 ft | 482 kts | 238° |
| 2026-05-03 23:47 | 15.32137 | -68.23915 | 42998 ft | 482 kts | 237° |
| 2026-05-03 23:47 | 15.28211 | -68.29546 | 42993 ft | 482 kts | 237° |
| 2026-05-03 23:48 | 15.24287 | -68.35168 | 42989 ft | 482 kts | 237° |
| 2026-05-03 23:48 | 15.20357 | -68.40798 | 42991 ft | 483 kts | 237° |
| 2026-05-03 23:49 | 15.16529 | -68.46458 | 42985 ft | 482 kts | 238° |
| 2026-05-03 23:49 | 15.12659 | -68.52142 | 42983 ft | 483 kts | 238° |
| 2026-05-03 23:50 | 15.08794 | -68.57813 | 42983 ft | 481 kts | 238° |
| 2026-05-03 23:50 | 15.04937 | -68.63482 | 42983 ft | 482 kts | 238° |
| 2026-05-03 23:51 | 15.01065 | -68.69155 | 42984 ft | 482 kts | 238° |
| 2026-05-03 23:51 | 14.97227 | -68.74785 | 42977 ft | 482 kts | 238° |
| 2026-05-03 23:52 | 14.93356 | -68.80451 | 42975 ft | 483 kts | 238° |
| 2026-05-03 23:52 | 14.89476 | -68.86130 | 42975 ft | 484 kts | 238° |
| 2026-05-03 23:53 | 14.85578 | -68.91803 | 42972 ft | 483 kts | 237° |
| 2026-05-03 23:53 | 14.81690 | -68.97470 | 42976 ft | 483 kts | 237° |
| 2026-05-03 23:54 | 14.77804 | -69.03139 | 42976 ft | 483 kts | 237° |
| 2026-05-03 23:54 | 14.73918 | -69.08808 | 42973 ft | 483 kts | 237° |
| 2026-05-03 23:55 | 14.70028 | -69.14482 | 42971 ft | 483 kts | 237° |
| 2026-05-03 23:55 | 14.66140 | -69.20148 | 42974 ft | 484 kts | 237° |
| 2026-05-03 23:56 | 14.62210 | -69.25872 | 42974 ft | 492 kts | 237° |
| 2026-05-03 23:56 | 14.58241 | -69.31647 | 42972 ft | 493 kts | 237° |
| 2026-05-03 23:57 | 14.54307 | -69.37371 | 42971 ft | 491 kts | 237° |
| 2026-05-03 23:57 | 14.50347 | -69.43127 | 42966 ft | 491 kts | 237° |
| 2026-05-03 23:58 | 14.46388 | -69.48878 | 42965 ft | 491 kts | 237° |
| 2026-05-03 23:58 | 14.42429 | -69.54625 | 42974 ft | 492 kts | 237° |
| 2026-05-03 23:59 | 14.38434 | -69.60421 | 42976 ft | 497 kts | 237° |
| 2026-05-03 23:59 | 14.34444 | -69.66205 | 42974 ft | 499 kts | 237° |
| 2026-05-04 00:00 | 14.30415 | -69.72040 | 42976 ft | 500 kts | 237° |
| 2026-05-04 00:00 | 14.26376 | -69.77887 | 42972 ft | 499 kts | 237° |
| 2026-05-04 00:01 | 14.22344 | -69.83719 | 42971 ft | 499 kts | 237° |
| 2026-05-04 00:01 | 14.18319 | -69.89537 | 42967 ft | 497 kts | 237° |
| 2026-05-04 00:02 | 14.14346 | -69.95283 | 42963 ft | 496 kts | 237° |
| 2026-05-04 00:02 | 14.10349 | -70.01077 | 42962 ft | 496 kts | 237° |
| 2026-05-04 00:03 | 14.06320 | -70.06866 | 42961 ft | 496 kts | 237° |
| 2026-05-04 00:03 | 14.02319 | -70.12634 | 42955 ft | 494 kts | 237° |
| 2026-05-04 00:04 | 13.98311 | -70.18403 | 42957 ft | 495 kts | 237° |
| 2026-05-04 00:04 | 13.94307 | -70.24171 | 42953 ft | 495 kts | 237° |
| 2026-05-04 00:05 | 13.90327 | -70.29895 | 42953 ft | 495 kts | 237° |
| 2026-05-04 00:05 | 13.86321 | -70.35658 | 42954 ft | 495 kts | 237° |
| 2026-05-04 00:06 | 13.82308 | -70.41423 | 42951 ft | 495 kts | 237° |
| 2026-05-04 00:06 | 13.78306 | -70.47177 | 42953 ft | 495 kts | 237° |
| 2026-05-04 00:07 | 13.74294 | -70.52941 | 42953 ft | 495 kts | 237° |
| 2026-05-04 00:07 | 13.70289 | -70.58689 | 42951 ft | 492 kts | 237° |
| 2026-05-04 00:08 | 13.66302 | -70.64410 | 42948 ft | 493 kts | 237° |
| 2026-05-04 00:08 | 13.62327 | -70.70108 | 42950 ft | 493 kts | 237° |
| 2026-05-04 00:09 | 13.58330 | -70.75835 | 42946 ft | 493 kts | 237° |
| 2026-05-04 00:09 | 13.54324 | -70.81569 | 42945 ft | 493 kts | 237° |
| 2026-05-04 00:10 | 13.50331 | -70.87283 | 42946 ft | 493 kts | 237° |
| 2026-05-04 00:10 | 13.46329 | -70.93005 | 42931 ft | 492 kts | 237° |
| 2026-05-04 00:11 | 13.42336 | -70.98711 | 42944 ft | 491 kts | 237° |
| 2026-05-04 00:11 | 13.38372 | -71.04372 | 42941 ft | 492 kts | 237° |
| 2026-05-04 00:12 | 13.34384 | -71.10075 | 42941 ft | 491 kts | 237° |
| 2026-05-04 00:12 | 13.30396 | -71.15773 | 42938 ft | 491 kts | 237° |
| 2026-05-04 00:13 | 13.26389 | -71.21470 | 42938 ft | 491 kts | 236° |
| 2026-05-04 00:13 | 13.22393 | -71.27161 | 42937 ft | 491 kts | 237° |
| 2026-05-04 00:14 | 13.18393 | -71.32847 | 42934 ft | 491 kts | 237° |
| 2026-05-04 00:14 | 13.14393 | -71.38533 | 42937 ft | 491 kts | 236° |
| 2026-05-04 00:15 | 13.10390 | -71.44218 | 42937 ft | 491 kts | 237° |
| 2026-05-04 00:15 | 13.06397 | -71.49901 | 42934 ft | 491 kts | 237° |
| 2026-05-04 00:16 | 13.02425 | -71.55548 | 42937 ft | 491 kts | 236° |
| 2026-05-04 00:16 | 12.98433 | -71.61218 | 42929 ft | 489 kts | 236° |
| 2026-05-04 00:17 | 12.94453 | -71.66869 | 42928 ft | 489 kts | 236° |
| 2026-05-04 00:17 | 12.90463 | -71.72530 | 42925 ft | 489 kts | 236° |
| 2026-05-04 00:18 | 12.86501 | -71.78148 | 42925 ft | 489 kts | 236° |
| 2026-05-04 00:18 | 12.82336 | -71.83672 | 42917 ft | 491 kts | 227° |
| 2026-05-04 00:19 | 12.76892 | -71.87919 | 42926 ft | 495 kts | 211° |
| 2026-05-04 00:19 | 12.70769 | -71.91186 | 42938 ft | 496 kts | 210° |
| 2026-05-04 00:20 | 12.64889 | -71.94707 | 42930 ft | 488 kts | 212° |
| 2026-05-04 00:20 | 12.58917 | -71.98075 | 42923 ft | 491 kts | 210° |
| 2026-05-04 00:21 | 12.52971 | -72.01522 | 42928 ft | 491 kts | 211° |
| 2026-05-04 00:21 | 12.47005 | -72.04943 | 42915 ft | 491 kts | 210° |
| 2026-05-04 00:22 | 12.41051 | -72.08360 | 42914 ft | 491 kts | 211° |
| 2026-05-04 00:22 | 12.35099 | -72.11783 | 42916 ft | 491 kts | 211° |
| 2026-05-04 00:23 | 12.29134 | -72.15198 | 42914 ft | 491 kts | 211° |
| 2026-05-04 00:23 | 12.23216 | -72.18598 | 42911 ft | 491 kts | 211° |
| 2026-05-04 00:24 | 12.17258 | -72.22008 | 42897 ft | 491 kts | 210° |
| 2026-05-04 00:24 | 12.11282 | -72.25434 | 42901 ft | 493 kts | 210° |
| 2026-05-04 00:25 | 12.05310 | -72.28851 | 42904 ft | 490 kts | 210° |
| 2026-05-04 00:25 | 11.99353 | -72.32262 | 42896 ft | 491 kts | 210° |
| 2026-05-04 00:26 | 11.93429 | -72.35649 | 42894 ft | 490 kts | 210° |
| 2026-05-04 00:26 | 11.87473 | -72.39055 | 42894 ft | 490 kts | 210° |
| 2026-05-04 00:27 | 11.81514 | -72.42459 | 42894 ft | 491 kts | 210° |
| 2026-05-04 00:27 | 11.75542 | -72.45870 | 42896 ft | 492 kts | 210° |
| 2026-05-04 00:28 | 11.69562 | -72.49283 | 42896 ft | 491 kts | 210° |
| 2026-05-04 00:28 | 11.63592 | -72.52689 | 42893 ft | 491 kts | 210° |
| 2026-05-04 00:29 | 11.57658 | -72.56073 | 42892 ft | 491 kts | 210° |
| 2026-05-04 00:29 | 11.51683 | -72.59478 | 42894 ft | 492 kts | 210° |
| 2026-05-04 00:30 | 11.45712 | -72.62880 | 42897 ft | 488 kts | 210° |
| 2026-05-04 00:30 | 11.39787 | -72.66254 | 42893 ft | 489 kts | 210° |
| 2026-05-04 00:31 | 11.33842 | -72.69637 | 42901 ft | 489 kts | 210° |
| 2026-05-04 00:31 | 11.27907 | -72.73013 | 42901 ft | 489 kts | 210° |
| 2026-05-04 00:32 | 11.21999 | -72.76373 | 42920 ft | 489 kts | 210° |
| 2026-05-04 00:32 | 11.16062 | -72.79747 | 42908 ft | 488 kts | 209° |
| 2026-05-04 00:33 | 11.08100 | -72.84269 | 42936 ft | 490 kts | 209° |
| 2026-05-04 00:34 | 11.02187 | -72.87626 | 42937 ft | 490 kts | 209° |
| 2026-05-04 00:34 | 10.96236 | -72.91002 | 42942 ft | 489 kts | 209° |
| 2026-05-04 00:35 | 10.90288 | -72.94376 | 42943 ft | 489 kts | 209° |
| 2026-05-04 00:35 | 10.84339 | -72.97749 | 42956 ft | 489 kts | 209° |
| 2026-05-04 00:36 | 10.78380 | -73.01125 | 42952 ft | 491 kts | 208° |
| 2026-05-04 00:36 | 10.72401 | -73.04511 | 42952 ft | 492 kts | 208° |
| 2026-05-04 00:37 | 10.66453 | -73.07879 | 42953 ft | 491 kts | 208° |
| 2026-05-04 00:37 | 10.60481 | -73.11258 | 42966 ft | 491 kts | 208° |
| 2026-05-04 00:38 | 10.54497 | -73.14642 | 42919 ft | 492 kts | 208° |
| 2026-05-04 00:38 | 10.48519 | -73.18022 | 42907 ft | 492 kts | 208° |
| 2026-05-04 00:39 | 10.42533 | -73.21405 | 42907 ft | 492 kts | 208° |
| 2026-05-04 00:39 | 10.36555 | -73.24782 | 42907 ft | 492 kts | 208° |
| 2026-05-04 00:40 | 10.30576 | -73.28157 | 42914 ft | 492 kts | 208° |
| 2026-05-04 00:40 | 10.24590 | -73.31536 | 42915 ft | 492 kts | 208° |
| 2026-05-04 00:41 | 10.18613 | -73.34907 | 42920 ft | 491 kts | 208° |
| 2026-05-04 00:41 | 10.12670 | -73.38258 | 42904 ft | 491 kts | 208° |
| 2026-05-04 00:42 | 10.06678 | -73.41636 | 42906 ft | 493 kts | 208° |
| 2026-05-04 00:42 | 10.00670 | -73.45020 | 42906 ft | 492 kts | 208° |
| 2026-05-04 00:43 | 9.94684 | -73.48392 | 42895 ft | 492 kts | 208° |
| 2026-05-04 00:43 | 9.88683 | -73.51770 | 42889 ft | 493 kts | 208° |
| 2026-05-04 00:44 | 9.82679 | -73.55148 | 42882 ft | 493 kts | 208° |
| 2026-05-04 00:44 | 9.76674 | -73.58525 | 42882 ft | 494 kts | 208° |
| 2026-05-04 00:45 | 9.70690 | -73.61890 | 42887 ft | 496 kts | 208° |
| 2026-05-04 00:45 | 9.64660 | -73.65278 | 42888 ft | 495 kts | 208° |
| 2026-05-04 00:46 | 9.58616 | -73.68673 | 42889 ft | 497 kts | 208° |
| 2026-05-04 00:46 | 9.52562 | -73.72072 | 42890 ft | 497 kts | 208° |
| 2026-05-04 00:47 | 9.46519 | -73.75464 | 42890 ft | 496 kts | 208° |
| 2026-05-04 00:47 | 9.40479 | -73.78853 | 42880 ft | 496 kts | 208° |
| 2026-05-04 00:48 | 9.34437 | -73.82241 | 42881 ft | 496 kts | 208° |
| 2026-05-04 00:48 | 9.28428 | -73.85610 | 42874 ft | 496 kts | 208° |
| 2026-05-04 00:49 | 9.22378 | -73.89000 | 42875 ft | 496 kts | 208° |
| 2026-05-04 00:49 | 9.16334 | -73.92385 | 42876 ft | 496 kts | 208° |
| 2026-05-04 00:50 | 9.10283 | -73.95774 | 42876 ft | 496 kts | 208° |
| 2026-05-04 00:50 | 9.04233 | -73.99160 | 42880 ft | 498 kts | 208° |
| 2026-05-04 00:51 | 8.98203 | -74.02534 | 42882 ft | 499 kts | 208° |
| 2026-05-04 00:51 | 8.92117 | -74.05937 | 42883 ft | 500 kts | 208° |
| 2026-05-04 00:52 | 8.86036 | -74.09337 | 42884 ft | 499 kts | 208° |
| 2026-05-04 00:52 | 8.79958 | -74.12734 | 42883 ft | 499 kts | 208° |
| 2026-05-04 00:53 | 8.73871 | -74.16134 | 42885 ft | 499 kts | 208° |
| 2026-05-04 00:53 | 8.67777 | -74.19537 | 42884 ft | 501 kts | 208° |
| 2026-05-04 00:54 | 8.61670 | -74.22946 | 42883 ft | 501 kts | 208° |
| 2026-05-04 00:54 | 8.55607 | -74.26330 | 42900 ft | 501 kts | 208° |
| 2026-05-04 00:55 | 8.49504 | -74.29734 | 42899 ft | 500 kts | 208° |
| 2026-05-04 00:55 | 8.43407 | -74.33134 | 42914 ft | 500 kts | 208° |
| 2026-05-04 00:56 | 8.37300 | -74.36538 | 42914 ft | 501 kts | 208° |
| 2026-05-04 00:56 | 8.31188 | -74.39943 | 42918 ft | 502 kts | 208° |
| 2026-05-04 00:57 | 8.25113 | -74.43328 | 42920 ft | 501 kts | 208° |
| 2026-05-04 00:57 | 8.18998 | -74.46732 | 42916 ft | 501 kts | 208° |
| 2026-05-04 00:58 | 8.12879 | -74.50138 | 42910 ft | 501 kts | 208° |
| 2026-05-04 00:58 | 8.06806 | -74.53517 | 42912 ft | 501 kts | 208° |
| 2026-05-04 00:59 | 8.00700 | -74.56913 | 42916 ft | 501 kts | 208° |
| 2026-05-04 00:59 | 7.94594 | -74.60308 | 42915 ft | 501 kts | 208° |
| 2026-05-04 01:00 | 7.88472 | -74.63711 | 42930 ft | 501 kts | 208° |
| 2026-05-04 01:00 | 7.82355 | -74.67110 | 42914 ft | 501 kts | 208° |
| 2026-05-04 01:01 | 7.76244 | -74.70505 | 42935 ft | 501 kts | 208° |
| 2026-05-04 01:01 | 7.70078 | -74.73779 | 42922 ft | 500 kts | 202° |
| 2026-05-04 01:02 | 7.63398 | -74.75468 | 42931 ft | 499 kts | 184° |
| 2026-05-04 01:02 | 7.56474 | -74.75607 | 42961 ft | 498 kts | 178° |
| 2026-05-04 01:03 | 7.49541 | -74.75763 | 42956 ft | 498 kts | 184° |
| 2026-05-04 01:03 | 7.42610 | -74.76250 | 42975 ft | 498 kts | 180° |
| 2026-05-04 01:04 | 7.35692 | -74.76472 | 42977 ft | 498 kts | 182° |
| 2026-05-04 01:04 | 7.28797 | -74.76884 | 42988 ft | 500 kts | 181° |
| 2026-05-04 01:05 | 7.21822 | -74.77168 | 42990 ft | 502 kts | 181° |
| 2026-05-04 01:05 | 7.14848 | -74.77539 | 42985 ft | 501 kts | 182° |
| 2026-05-04 01:06 | 7.07875 | -74.77855 | 42986 ft | 501 kts | 181° |
| 2026-05-04 01:06 | 7.00908 | -74.78202 | 43007 ft | 501 kts | 181° |
| 2026-05-04 01:07 | 6.93981 | -74.78531 | 43010 ft | 501 kts | 181° |
| 2026-05-04 01:07 | 6.87015 | -74.78869 | 43028 ft | 501 kts | 181° |
| 2026-05-04 01:08 | 6.80031 | -74.79206 | 43029 ft | 501 kts | 181° |
| 2026-05-04 01:08 | 6.73071 | -74.79541 | 43033 ft | 501 kts | 181° |
| 2026-05-04 01:09 | 6.66179 | -74.79875 | 42468 ft | 484 kts | 181° |
| 2026-05-04 01:09 | 6.62857 | -74.80035 | 41978 ft | 472 kts | 181° |
| 2026-05-04 01:09 | 6.59617 | -74.80190 | 41494 ft | 461 kts | 181° |
| 2026-05-04 01:09 | 6.56441 | -74.80343 | 41030 ft | 453 kts | 181° |
| 2026-05-04 01:10 | 6.53341 | -74.80492 | 40572 ft | 449 kts | 181° |
| 2026-05-04 01:10 | 6.50212 | -74.80643 | 40104 ft | 450 kts | 181° |
| 2026-05-04 01:10 | 6.47053 | -74.80794 | 39628 ft | 457 kts | 182° |
| 2026-05-04 01:10 | 6.43847 | -74.80948 | 39146 ft | 463 kts | 182° |
| 2026-05-04 01:11 | 6.40613 | -74.81104 | 38644 ft | 467 kts | 182° |
| 2026-05-04 01:11 | 6.37363 | -74.81261 | 38112 ft | 468 kts | 182° |
| 2026-05-04 01:11 | 6.34109 | -74.81418 | 37615 ft | 469 kts | 182° |
| 2026-05-04 01:11 | 6.30846 | -74.81574 | 37128 ft | 470 kts | 182° |
| 2026-05-04 01:12 | 6.27569 | -74.81732 | 36628 ft | 472 kts | 182° |
| 2026-05-04 01:12 | 6.24273 | -74.81891 | 36130 ft | 474 kts | 182° |
| 2026-05-04 01:12 | 6.21017 | -74.82048 | 35636 ft | 476 kts | 181° |
| 2026-05-04 01:12 | 6.17695 | -74.82207 | 35136 ft | 477 kts | 181° |
| 2026-05-04 01:13 | 6.14378 | -74.82367 | 34627 ft | 478 kts | 181° |
| 2026-05-04 01:13 | 6.11044 | -74.82527 | 34128 ft | 479 kts | 181° |
| 2026-05-04 01:13 | 6.07726 | -74.82687 | 33641 ft | 479 kts | 181° |
| 2026-05-04 01:13 | 6.04389 | -74.82826 | 33135 ft | 479 kts | 180° |
| 2026-05-04 01:14 | 6.01098 | -74.82380 | 32588 ft | 479 kts | 163° |
| 2026-05-04 01:14 | 5.98051 | -74.81062 | 32105 ft | 478 kts | 148° |
| 2026-05-04 01:14 | 5.95411 | -74.79041 | 31631 ft | 478 kts | 139° |
| 2026-05-04 01:14 | 5.92899 | -74.76840 | 31114 ft | 480 kts | 137° |
| 2026-05-04 01:15 | 5.90401 | -74.74602 | 30598 ft | 483 kts | 137° |
| 2026-05-04 01:15 | 5.87871 | -74.72386 | 30089 ft | 481 kts | 139° |
| 2026-05-04 01:15 | 5.85336 | -74.70208 | 29540 ft | 475 kts | 139° |
| 2026-05-04 01:15 | 5.82852 | -74.68047 | 29041 ft | 470 kts | 138° |
| 2026-05-04 01:16 | 5.80433 | -74.65915 | 28552 ft | 466 kts | 138° |
| 2026-05-04 01:16 | 5.77968 | -74.63753 | 28063 ft | 462 kts | 138° |
| 2026-05-04 01:16 | 5.75582 | -74.61680 | 27584 ft | 459 kts | 138° |
| 2026-05-04 01:16 | 5.73174 | -74.59586 | 27101 ft | 455 kts | 138° |
| 2026-05-04 01:17 | 5.70797 | -74.57506 | 26647 ft | 451 kts | 138° |
| 2026-05-04 01:17 | 5.68438 | -74.55443 | 26175 ft | 448 kts | 138° |
| 2026-05-04 01:17 | 5.66095 | -74.53400 | 25706 ft | 444 kts | 138° |
| 2026-05-04 01:17 | 5.63763 | -74.51369 | 25239 ft | 441 kts | 138° |
| 2026-05-04 01:18 | 5.61456 | -74.49355 | 24801 ft | 438 kts | 138° |
| 2026-05-04 01:18 | 5.59167 | -74.47358 | 24344 ft | 434 kts | 137° |
| 2026-05-04 01:18 | 5.56888 | -74.45371 | 23910 ft | 431 kts | 137° |
| 2026-05-04 01:18 | 5.54641 | -74.43411 | 23424 ft | 428 kts | 137° |
| 2026-05-04 01:19 | 5.52408 | -74.41465 | 22962 ft | 423 kts | 137° |
| 2026-05-04 01:19 | 5.50195 | -74.39535 | 22519 ft | 420 kts | 137° |
| 2026-05-04 01:19 | 5.48013 | -74.37634 | 22081 ft | 404 kts | 137° |
| 2026-05-04 01:19 | 5.45974 | -74.35859 | 21667 ft | 381 kts | 137° |
| 2026-05-04 01:20 | 5.44019 | -74.34157 | 21323 ft | 365 kts | 137° |
| 2026-05-04 01:20 | 5.41937 | -74.32755 | 20931 ft | 362 kts | 152° |
| 2026-05-04 01:20 | 5.39519 | -74.32066 | 20565 ft | 365 kts | 169° |
| 2026-05-04 01:20 | 5.37792 | -74.31978 | 20337 ft | 368 kts | 176° |
| 2026-05-04 01:21 | 5.35217 | -74.31953 | 19973 ft | 371 kts | 176° |
| 2026-05-04 01:21 | 5.31806 | -74.31924 | 19451 ft | 369 kts | 176° |
| 2026-05-04 01:21 | 5.30110 | -74.31898 | 19197 ft | 367 kts | 176° |
| 2026-05-04 01:21 | 5.27573 | -74.31855 | 18840 ft | 357 kts | 176° |
| 2026-05-04 01:22 | 5.25136 | -74.31824 | 18461 ft | 343 kts | 176° |
| 2026-05-04 01:22 | 5.22784 | -74.31967 | 18014 ft | 338 kts | 188° |
| 2026-05-04 01:22 | 5.20550 | -74.32637 | 17708 ft | 332 kts | 194° |
| 2026-05-04 01:22 | 5.18350 | -74.33322 | 17375 ft | 331 kts | 193° |
| 2026-05-04 01:23 | 5.16135 | -74.33990 | 17027 ft | 330 kts | 193° |
| 2026-05-04 01:23 | 5.13942 | -74.34651 | 16698 ft | 329 kts | 193° |
| 2026-05-04 01:23 | 5.11745 | -74.35325 | 16372 ft | 330 kts | 193° |
| 2026-05-04 01:23 | 5.09550 | -74.35998 | 15960 ft | 329 kts | 194° |
| 2026-05-04 01:24 | 5.07368 | -74.36663 | 15621 ft | 326 kts | 194° |
| 2026-05-04 01:24 | 5.05227 | -74.37314 | 15281 ft | 325 kts | 194° |
| 2026-05-04 01:24 | 5.03075 | -74.37971 | 14949 ft | 322 kts | 194° |
| 2026-05-04 01:24 | 5.00936 | -74.38623 | 14611 ft | 321 kts | 194° |
| 2026-05-04 01:25 | 4.98803 | -74.39273 | 14169 ft | 319 kts | 194° |
| 2026-05-04 01:25 | 4.96704 | -74.39913 | 13621 ft | 310 kts | 194° |
| 2026-05-04 01:25 | 4.94683 | -74.40527 | 13261 ft | 293 kts | 193° |
| 2026-05-04 01:25 | 4.92763 | -74.40740 | 12894 ft | 268 kts | 172° |
| 2026-05-04 01:26 | 4.91020 | -74.40261 | 12808 ft | 255 kts | 153° |
| 2026-05-04 01:26 | 4.89568 | -74.39216 | 12827 ft | 262 kts | 134° |
| 2026-05-04 01:26 | 4.88463 | -74.37844 | 12857 ft | 242 kts | 125° |
| 2026-05-04 01:26 | 4.87490 | -74.36502 | 12865 ft | 239 kts | 126° |
| 2026-05-04 01:27 | 4.86470 | -74.35146 | 12914 ft | 246 kts | 126° |
| 2026-05-04 01:27 | 4.85430 | -74.33775 | 12704 ft | 245 kts | 126° |
| 2026-05-04 01:27 | 4.84428 | -74.32453 | 12402 ft | 230 kts | 126° |
| 2026-05-04 01:27 | 4.83489 | -74.31217 | 12123 ft | 216 kts | 126° |
| 2026-05-04 01:28 | 4.82599 | -74.30045 | 11861 ft | 208 kts | 126° |
| 2026-05-04 01:28 | 4.81732 | -74.28900 | 11610 ft | 205 kts | 126° |
| 2026-05-04 01:28 | 4.80871 | -74.27764 | 11367 ft | 205 kts | 126° |
| 2026-05-04 01:28 | 4.80016 | -74.26635 | 11120 ft | 207 kts | 127° |
| 2026-05-04 01:29 | 4.79143 | -74.25483 | 10872 ft | 208 kts | 127° |
| 2026-05-04 01:29 | 4.78282 | -74.24348 | 10610 ft | 191 kts | 127° |
| 2026-05-04 01:29 | 4.77529 | -74.23355 | 10387 ft | 168 kts | 127° |
| 2026-05-04 01:29 | 4.76845 | -74.22455 | 10198 ft | 159 kts | 127° |
| 2026-05-04 01:30 | 4.76181 | -74.21580 | 9998 ft | 152 kts | 127° |
| 2026-05-04 01:30 | 4.75570 | -74.20776 | 9802 ft | 138 kts | 127° |
| 2026-05-04 01:30 | 4.75006 | -74.20031 | 9617 ft | 132 kts | 127° |
| 2026-05-04 01:30 | 4.74444 | -74.19292 | 9443 ft | 138 kts | 128° |
| 2026-05-04 01:31 | 4.73831 | -74.18506 | 9256 ft | 151 kts | 128° |
| 2026-05-04 01:31 | 4.73183 | -74.17649 | 9028 ft | 156 kts | 128° |
| 2026-05-04 01:31 | 4.72535 | -74.16785 | 8828 ft | 154 kts | 127° |
| 2026-05-04 01:31 | 4.71899 | -74.15943 | 8609 ft | 147 kts | 128° |
| 2026-05-04 01:32 | 4.71285 | -74.15133 | 8381 ft | 145 kts | 128° |
| 2026-05-04 01:32 | 4.70741 | -74.14416 | 8363 ft | 103 kts | 127° |
| 2026-05-04 01:32 | 4.70419 | -74.13989 | 8362 ft | 54 kts | 128° |
| 2026-05-04 01:32 | 4.70303 | -74.13846 | 8361 ft | 5 kts | 182° |
| 2026-05-04 01:33 | 4.70276 | -74.13862 | 8361 ft | 5 kts | 223° |
| 2026-05-04 01:33 | 4.70237 | -74.13892 | 8361 ft | 9 kts | 217° |
| 2026-05-04 01:33 | 4.70180 | -74.13934 | 8362 ft | 10 kts | 217° |
| 2026-05-04 01:33 | 4.70159 | -74.13974 | 8362 ft | 7 kts | 291° |
| 2026-05-04 01:34 | 4.70193 | -74.14018 | 8362 ft | 10 kts | 308° |
| 2026-05-04 01:34 | 4.70239 | -74.14080 | 8362 ft | 12 kts | 302° |
| 2026-05-04 01:34 | 4.70296 | -74.14156 | 8362 ft | 15 kts | 308° |
| 2026-05-04 01:34 | 4.70363 | -74.14244 | 8362 ft | 15 kts | 308° |
| 2026-05-04 01:35 | 4.70432 | -74.14335 | 8363 ft | 16 kts | 308° |
| 2026-05-04 01:35 | 4.70490 | -74.14410 | 8363 ft | 13 kts | 307° |
| 2026-05-04 01:35 | 4.70466 | -74.14474 | 8363 ft | 12 kts | 216° |
| 2026-05-04 01:35 | 4.70390 | -74.14533 | 8363 ft | 16 kts | 217° |
| 2026-05-04 01:36 | 4.70345 | -74.14591 | 8362 ft | 10 kts | 281° |
| 2026-05-04 01:36 | 4.70382 | -74.14651 | 8362 ft | 11 kts | 306° |
| 2026-05-04 01:36 | 4.70371 | -74.14688 | 8362 ft | 7 kts | 213° |
| 2026-05-04 01:36 | 4.70327 | -74.14719 | 8362 ft | 6 kts | 187° |
| 2026-05-04 01:37 | 4.70302 | -74.14695 | 8363 ft | 0 kts | 125° |
| 2026-05-04 01:37 | 4.70302 | -74.14694 | 8363 ft | 0 kts | 126° |